createdAt,value
2022-09-30T00:01:46.066Z,97656.84
2022-09-30T00:04:23.186Z,97661.22
2022-09-30T00:06:53.572Z,97656.94
2022-09-30T00:09:21.672Z,97656.84
2022-09-30T00:11:48.319Z,97652.66
2022-09-30T00:14:20.398Z,97659.81
2022-09-30T00:16:47.114Z,97660.38
2022-09-30T00:19:13.999Z,97668.38
2022-09-30T00:21:41.224Z,97660.09
2022-09-30T00:24:07.822Z,97657.28
2022-09-30T00:26:35.298Z,97662.50
2022-09-30T00:29:05.737Z,97669.97
2022-09-30T00:31:35.325Z,97672.53
2022-09-30T00:34:11.115Z,97674.31
2022-09-30T00:36:58.229Z,97669.44
2022-09-30T00:39:27.600Z,97664.16
2022-09-30T00:42:01.586Z,97666.44
2022-09-30T00:44:51.302Z,97669.53
2022-09-30T00:47:49.061Z,97669.53
2022-09-30T00:50:21.267Z,97667.06
2022-09-30T00:53:03.348Z,97675.81
2022-09-30T00:55:44.701Z,97674.09
2022-09-30T00:58:25.175Z,97672.34
2022-09-30T01:01:01.901Z,97674.31
2022-09-30T01:03:38.548Z,97669.00
2022-09-30T01:06:05.543Z,97673.44
2022-09-30T01:08:37.862Z,97672.91
2022-09-30T01:11:08.215Z,97672.81
2022-09-30T01:13:39.175Z,97672.81
2022-09-30T01:16:48.339Z,97677.63
2022-09-30T01:19:53.342Z,97677.53
2022-09-30T01:22:45.443Z,97679.59
2022-09-30T01:25:47.416Z,97674.38
2022-09-30T01:29:05.916Z,97683.03
2022-09-30T01:32:00.267Z,97677.16
2022-09-30T01:34:56.551Z,97677.63
2022-09-30T01:37:52.494Z,97671.59
2022-09-30T01:40:37.439Z,97684.03
2022-09-30T01:43:42.487Z,97676.91
2022-09-30T01:46:34.653Z,97679.09
2022-09-30T01:49:20.378Z,97683.81
2022-09-30T01:52:08.418Z,97683.81
2022-09-30T01:55:16.640Z,97688.09
2022-09-30T01:57:48.726Z,97683.69
2022-09-30T02:00:15.712Z,97694.91
2022-09-30T02:02:54.234Z,97692.09
2022-09-30T02:05:37.761Z,97703.63
2022-09-30T02:08:17.218Z,97707.56
2022-09-30T02:11:08.075Z,97712.91
2022-09-30T02:13:56.721Z,97711.72
2022-09-30T02:16:35.269Z,97719.75
2022-09-30T02:19:13.337Z,97719.44
2022-09-30T02:21:47.844Z,97727.09
2022-09-30T02:24:20.014Z,97720.41
2022-09-30T02:26:50.355Z,97711.56
2022-09-30T02:29:24.871Z,97712.13
2022-09-30T02:31:59.409Z,97703.00
2022-09-30T02:34:37.812Z,97694.28
2022-09-30T02:37:21.988Z,97708.66
2022-09-30T02:40:10.593Z,97708.88
2022-09-30T02:42:38.978Z,97712.22
2022-09-30T02:45:16.284Z,97702.91
2022-09-30T02:48:02.704Z,97704.25
2022-09-30T02:50:52.248Z,97712.47
2022-09-30T02:53:41.205Z,97714.72
2022-09-30T02:56:27.283Z,97707.25
2022-09-30T02:58:57.030Z,97709.34
2022-09-30T03:01:25.168Z,97715.41
2022-09-30T03:04:09.197Z,97720.97
2022-09-30T03:06:38.175Z,97719.19
2022-09-30T03:09:05.167Z,97713.56
2022-09-30T03:11:32.520Z,97708.78
2022-09-30T03:14:17.512Z,97708.09
2022-09-30T03:17:39.021Z,97710.13
2022-09-30T03:20:31.051Z,97716.59
2022-09-30T03:23:13.603Z,97723.41
2022-09-30T03:26:36.397Z,97718.94
2022-09-30T03:29:36.456Z,97724.81
2022-09-30T03:32:28.723Z,97718.13
2022-09-30T03:35:03.913Z,97731.97
2022-09-30T03:37:33.859Z,97737.09
2022-09-30T03:40:28.448Z,97744.84
2022-09-30T03:43:17.240Z,97742.06
2022-09-30T03:45:57.350Z,97746.09
2022-09-30T03:48:28.851Z,97751.22
2022-09-30T03:50:56.978Z,97750.63
2022-09-30T03:53:23.679Z,97756.19
2022-09-30T03:55:52.776Z,97754.19
2022-09-30T03:58:23.273Z,97758.28
2022-09-30T04:00:53.371Z,97762.97
2022-09-30T04:03:25.492Z,97772.69
2022-09-30T04:05:52.018Z,97781.09
2022-09-30T04:08:18.592Z,97784.38
2022-09-30T04:10:50.626Z,97780.69
2022-09-30T04:13:17.078Z,97785.06
2022-09-30T04:15:43.510Z,97786.25
2022-09-30T04:18:09.987Z,97781.03
2022-09-30T04:20:38.499Z,97785.06
2022-09-30T04:23:04.951Z,97790.34
2022-09-30T04:25:31.395Z,97796.34
2022-09-30T04:27:57.895Z,97796.03
2022-09-30T04:30:26.499Z,97792.22
2022-09-30T04:32:55.479Z,97792.44
2022-09-30T04:35:21.959Z,97794.44
2022-09-30T04:37:48.456Z,97804.38
2022-09-30T04:40:16.931Z,97805.69
2022-09-30T04:42:43.894Z,97812.75
2022-09-30T04:45:14.635Z,97809.91
2022-09-30T04:47:45.379Z,97806.31
2022-09-30T04:50:11.926Z,97819.63
2022-09-30T04:52:42.274Z,97822.44
2022-09-30T04:55:09.759Z,97825.81
2022-09-30T04:57:36.912Z,97824.53
2022-09-30T05:00:08.910Z,97834.63
2022-09-30T05:02:35.612Z,97838.91
2022-09-30T05:05:03.073Z,97834.63
2022-09-30T05:07:38.131Z,97837.78
2022-09-30T05:10:05.416Z,97840.75
2022-09-30T05:12:31.931Z,97837.72
2022-09-30T05:14:58.404Z,97832.56
2022-09-30T05:17:24.866Z,97825.75
2022-09-30T05:19:53.619Z,97825.13
2022-09-30T05:22:20.050Z,97836.91
2022-09-30T05:24:46.524Z,97829.25
2022-09-30T05:27:12.940Z,97833.09
2022-09-30T05:29:39.711Z,97828.78
2022-09-30T05:32:07.718Z,97837.06
2022-09-30T05:34:34.176Z,97834.38
2022-09-30T05:37:00.672Z,97843.03
2022-09-30T05:39:27.104Z,97842.44
2022-09-30T05:41:57.332Z,97845.72
2022-09-30T05:44:24.208Z,97854.16
2022-09-30T05:46:50.733Z,97853.31
2022-09-30T05:49:20.253Z,97857.47
2022-09-30T05:51:49.406Z,97853.78
2022-09-30T05:54:15.824Z,97855.06
2022-09-30T05:56:42.309Z,97861.75
2022-09-30T05:59:08.739Z,97868.38
2022-09-30T06:01:36.037Z,97870.16
2022-09-30T06:04:02.850Z,97869.69
2022-09-30T06:06:30.210Z,97877.72
2022-09-30T06:08:56.878Z,97873.22
2022-09-30T06:11:25.013Z,97876.28
2022-09-30T06:13:52.251Z,97874.28
2022-09-30T06:16:19.685Z,97875.81
2022-09-30T06:18:46.554Z,97883.41
2022-09-30T06:21:16.057Z,97882.41
2022-09-30T06:23:43.171Z,97891.59
2022-09-30T06:26:12.701Z,97894.41
2022-09-30T06:28:39.438Z,97904.63
2022-09-30T06:31:07.065Z,97910.19
2022-09-30T06:33:34.394Z,97908.91
2022-09-30T06:36:04.365Z,97910.41
2022-09-30T06:38:33.143Z,97916.16
2022-09-30T06:41:02.951Z,97914.44
2022-09-30T06:43:29.414Z,97917.38
2022-09-30T06:46:06.865Z,97922.63
2022-09-30T06:48:39.198Z,97922.94
2022-09-30T06:51:09.795Z,97912.28
2022-09-30T06:53:39.099Z,97918.16
2022-09-30T06:56:06.511Z,97909.97
2022-09-30T06:58:32.945Z,97921.31
2022-09-30T07:01:06.137Z,97916.69
2022-09-30T07:03:35.662Z,97920.22
2022-09-30T07:06:05.923Z,97917.69
2022-09-30T07:08:35.749Z,97930.56
2022-09-30T07:11:14.475Z,97936.84
2022-09-30T07:13:45.803Z,97936.47
2022-09-30T07:16:14.046Z,97934.47
2022-09-30T07:18:44.946Z,97932.34
2022-09-30T07:21:15.722Z,97934.25
2022-09-30T07:23:47.983Z,97936.63
2022-09-30T07:26:21.214Z,97927.97
2022-09-30T07:28:49.541Z,97933.25
2022-09-30T07:31:32.343Z,97934.34
2022-09-30T07:34:00.084Z,97941.31
2022-09-30T07:36:32.559Z,97941.91
2022-09-30T07:39:05.602Z,97932.34
2022-09-30T07:41:35.656Z,97936.28
2022-09-30T07:44:02.847Z,97934.22
2022-09-30T07:46:33.093Z,97948.72
2022-09-30T07:49:03.902Z,97953.09
2022-09-30T07:51:38.468Z,97950.63
2022-09-30T07:54:15.188Z,97945.59
2022-09-30T07:57:09.779Z,97947.09
2022-09-30T07:59:32.621Z,97949.44
2022-09-30T08:01:59.161Z,97950.44
2022-09-30T08:04:27.237Z,97961.66
2022-09-30T08:06:58.704Z,97958.63
2022-09-30T08:09:27.774Z,97968.25
2022-09-30T08:11:55.355Z,97958.09
2022-09-30T08:14:27.533Z,97958.34
2022-09-30T08:16:56.434Z,97954.03
2022-09-30T08:19:26.033Z,97957.91
2022-09-30T08:21:54.140Z,97961.00
2022-09-30T08:24:23.959Z,97960.63
2022-09-30T08:26:51.228Z,97963.75
2022-09-30T08:29:20.329Z,97970.03
2022-09-30T08:31:52.278Z,97967.06
2022-09-30T08:34:19.155Z,97965.59
2022-09-30T08:36:46.486Z,97972.03
2022-09-30T08:39:13.333Z,97972.03
2022-09-30T08:42:13.684Z,97968.34
2022-09-30T08:44:51.120Z,97966.78
2022-09-30T08:47:45.547Z,97972.97
2022-09-30T08:50:27.855Z,97974.94
2022-09-30T08:53:03.395Z,97980.56
2022-09-30T08:55:40.459Z,97980.75
2022-09-30T08:58:21.433Z,97982.50
2022-09-30T09:00:54.773Z,97977.53
2022-09-30T09:03:28.511Z,97972.56
2022-09-30T09:06:16.649Z,97974.59
2022-09-30T09:09:25.838Z,97968.88
2022-09-30T09:12:24.725Z,97961.84
2022-09-30T09:14:54.494Z,97967.88
2022-09-30T09:17:37.514Z,97964.88
2022-09-30T09:20:14.885Z,97963.75
2022-09-30T09:22:44.403Z,97961.81
2022-09-30T09:25:15.700Z,97960.16
2022-09-30T09:27:56.112Z,97964.41
2022-09-30T09:30:26.208Z,97960.78
2022-09-30T09:32:58.129Z,97959.44
2022-09-30T09:35:42.391Z,97956.94
2022-09-30T09:38:28.952Z,97958.28
2022-09-30T09:41:41.731Z,97946.31
2022-09-30T09:44:49.306Z,97946.22
2022-09-30T09:47:17.123Z,97940.75
2022-09-30T09:49:55.342Z,97947.41
2022-09-30T09:52:49.359Z,97947.63
2022-09-30T09:55:21.928Z,97952.22
2022-09-30T09:58:04.017Z,97950.63
2022-09-30T10:00:45.789Z,97948.94
2022-09-30T10:03:21.277Z,97954.16
2022-09-30T10:06:07.621Z,97957.19
2022-09-30T10:08:39.096Z,97948.22
2022-09-30T10:11:21.490Z,97950.91
2022-09-30T10:13:48.419Z,97947.06
2022-09-30T10:16:37.987Z,97942.81
2022-09-30T10:19:19.852Z,97941.06
2022-09-30T10:21:46.371Z,97944.34
2022-09-30T10:24:22.695Z,97949.13
2022-09-30T10:26:49.470Z,97952.00
2022-09-30T10:29:31.503Z,97954.56
2022-09-30T10:32:02.280Z,97955.66
2022-09-30T10:34:38.004Z,97962.13
2022-09-30T10:37:20.517Z,97957.13
2022-09-30T10:40:01.969Z,97960.84
2022-09-30T10:42:34.589Z,97955.22
2022-09-30T10:45:16.360Z,97964.91
2022-09-30T10:47:51.392Z,97963.09
2022-09-30T10:50:25.032Z,97961.34
2022-09-30T10:53:04.690Z,97960.81
2022-09-30T10:55:42.517Z,97961.53
2022-09-30T10:58:39.889Z,97960.78
2022-09-30T11:01:26.136Z,97959.94
2022-09-30T11:04:14.591Z,97960.06
2022-09-30T11:06:44.465Z,97955.94
2022-09-30T11:09:34.736Z,97955.69
2022-09-30T11:12:17.319Z,97958.72
2022-09-30T11:15:04.339Z,97960.13
2022-09-30T11:17:49.612Z,97964.09
2022-09-30T11:20:25.139Z,97948.91
2022-09-30T11:23:20.692Z,97946.50
2022-09-30T11:26:30.482Z,97938.38
2022-09-30T11:29:56.422Z,97938.97
2022-09-30T11:32:49.076Z,97937.09
2022-09-30T11:35:42.897Z,97932.81
2022-09-30T11:38:28.242Z,97922.28
2022-09-30T11:41:17.345Z,97924.44
2022-09-30T11:44:06.993Z,97935.38
2022-09-30T11:46:47.923Z,97926.59
2022-09-30T11:49:38.012Z,97926.19
2022-09-30T11:52:35.915Z,97928.56
2022-09-30T11:55:26.322Z,97932.22
2022-09-30T11:58:39.903Z,97931.06
2022-09-30T12:01:19.573Z,97932.88
2022-09-30T12:03:57.754Z,97925.28
2022-09-30T12:07:06.976Z,97932.06
2022-09-30T12:09:43.113Z,97931.00
2022-09-30T12:12:17.180Z,97920.81
2022-09-30T12:14:57.606Z,97935.16
2022-09-30T12:17:39.239Z,97938.69
2022-09-30T12:20:26.135Z,97945.44
2022-09-30T12:23:01.084Z,97935.88
2022-09-30T12:25:46.042Z,97934.06
2022-09-30T12:28:53.703Z,97931.00
2022-09-30T12:31:51.809Z,97935.59
2022-09-30T12:34:21.153Z,97930.34
2022-09-30T12:37:03.181Z,97924.06
2022-09-30T12:40:08.371Z,97929.66
2022-09-30T12:43:03.564Z,97928.31
2022-09-30T12:46:01.416Z,97929.56
2022-09-30T12:48:39.034Z,97924.69
2022-09-30T12:51:07.486Z,97940.13
2022-09-30T12:53:39.604Z,97933.28
2022-09-30T12:56:14.451Z,97926.06
2022-09-30T12:58:51.762Z,97917.16
2022-09-30T13:01:25.799Z,97921.09
2022-09-30T13:03:59.322Z,97917.19
2022-09-30T13:06:48.139Z,97919.16
2022-09-30T13:09:17.502Z,97923.47
2022-09-30T13:12:12.315Z,97922.25
2022-09-30T13:14:43.904Z,97916.94
2022-09-30T13:17:10.250Z,97922.25
2022-09-30T13:19:47.415Z,97920.03
2022-09-30T13:22:29.614Z,97926.13
2022-09-30T13:25:00.615Z,97923.47
2022-09-30T13:27:38.997Z,97919.69
2022-09-30T13:30:14.594Z,97922.34
2022-09-30T13:33:06.812Z,97930.00
2022-09-30T13:35:50.600Z,97922.25
2022-09-30T13:38:34.376Z,97921.69
2022-09-30T13:41:25.992Z,97920.03
2022-09-30T13:44:21.200Z,97918.78
2022-09-30T13:47:05.980Z,97907.34
2022-09-30T13:50:00.469Z,97908.88
2022-09-30T13:52:33.985Z,97900.25
2022-09-30T13:55:50.034Z,97903.03
2022-09-30T13:59:07.707Z,97900.53
2022-09-30T14:01:38.708Z,97899.13
2022-09-30T14:04:31.995Z,97897.75
2022-09-30T14:07:23.096Z,97882.44
2022-09-30T14:10:28.172Z,97891.47
2022-09-30T14:13:28.230Z,97880.47
2022-09-30T14:16:33.391Z,97882.97
2022-09-30T14:19:22.789Z,97874.63
2022-09-30T14:21:56.179Z,97873.22
2022-09-30T14:24:33.863Z,97870.16
2022-09-30T14:27:53.858Z,97863.91
2022-09-30T14:30:26.307Z,97860.72
2022-09-30T14:33:02.158Z,97869.31
2022-09-30T14:35:33.619Z,97870.72
2022-09-30T14:38:06.707Z,97865.16
2022-09-30T14:40:40.055Z,97874.34
2022-09-30T14:43:14.470Z,97867.25
2022-09-30T14:45:46.872Z,97870.47
2022-09-30T14:48:24.559Z,97873.13
2022-09-30T14:50:57.606Z,97870.47
2022-09-30T14:53:52.712Z,97865.19
2022-09-30T14:56:30.577Z,97857.50
2022-09-30T14:59:00.741Z,97856.53
2022-09-30T15:01:35.474Z,97856.94
2022-09-30T15:04:19.878Z,97854.16
2022-09-30T15:06:52.860Z,97859.72
2022-09-30T15:09:29.788Z,97848.19
2022-09-30T15:11:58.923Z,97852.91
2022-09-30T15:14:25.560Z,97842.19
2022-09-30T15:16:56.080Z,97845.69
2022-09-30T15:19:35.040Z,97846.22
2022-09-30T15:22:06.431Z,97845.78
2022-09-30T15:24:36.299Z,97840.94
2022-09-30T15:27:04.810Z,97846.50
2022-09-30T15:29:31.277Z,97850.94
2022-09-30T15:32:22.099Z,97841.19
2022-09-30T15:34:48.803Z,97846.34
2022-09-30T15:37:26.067Z,97845.63
2022-09-30T15:40:11.856Z,97839.09
2022-09-30T15:42:47.596Z,97847.16
2022-09-30T15:45:18.483Z,97849.09
2022-09-30T15:47:58.883Z,97858.13
2022-09-30T15:50:48.748Z,97858.97
2022-09-30T15:53:25.659Z,97858.66
2022-09-30T15:56:00.203Z,97856.59
2022-09-30T15:58:26.666Z,97860.78
2022-09-30T16:01:23.034Z,97862.03
2022-09-30T16:04:02.616Z,97856.44
2022-09-30T16:06:59.808Z,97857.16
2022-09-30T16:09:35.688Z,97861.16
2022-09-30T16:12:13.633Z,97861.13
2022-09-30T16:14:50.138Z,97858.50
2022-09-30T16:17:35.956Z,97861.34
2022-09-30T16:20:20.196Z,97878.00
2022-09-30T16:22:46.607Z,97874.47
2022-09-30T16:25:33.519Z,97864.66
2022-09-30T16:28:15.096Z,97864.94
2022-09-30T16:30:46.939Z,97866.47
2022-09-30T16:33:16.094Z,97871.50
2022-09-30T16:35:44.157Z,97870.03
2022-09-30T16:38:15.370Z,97866.13
2022-09-30T16:40:41.837Z,97873.34
2022-09-30T16:43:11.572Z,97875.00
2022-09-30T16:45:39.770Z,97879.16
2022-09-30T16:48:15.727Z,97875.84
2022-09-30T16:50:50.190Z,97877.94
2022-09-30T16:53:17.182Z,97875.75
2022-09-30T16:55:44.799Z,97876.47
2022-09-30T16:58:12.903Z,97883.03
2022-09-30T17:00:45.179Z,97880.00
2022-09-30T17:03:14.970Z,97882.63
2022-09-30T17:05:44.477Z,97890.09
2022-09-30T17:08:16.912Z,97884.97
2022-09-30T17:10:50.023Z,97885.19
2022-09-30T17:13:19.735Z,97894.06
2022-09-30T17:15:52.476Z,97894.59
2022-09-30T17:18:19.559Z,97901.78
2022-09-30T17:20:53.005Z,97902.84
2022-09-30T17:23:22.370Z,97904.31
2022-09-30T17:25:49.519Z,97905.25
2022-09-30T17:28:17.191Z,97906.94
2022-09-30T17:30:47.703Z,97906.97
2022-09-30T17:33:15.114Z,97905.28
2022-09-30T17:35:41.592Z,97907.56
2022-09-30T17:38:10.215Z,97904.56
2022-09-30T17:40:55.928Z,97910.78
2022-09-30T17:43:22.908Z,97911.28
2022-09-30T17:45:50.688Z,97912.56
2022-09-30T17:48:18.703Z,97913.16
2022-09-30T17:50:48.269Z,97911.72
2022-09-30T17:53:17.987Z,97904.56
2022-09-30T17:55:47.912Z,97907.41
2022-09-30T17:58:19.108Z,97904.91
2022-09-30T18:00:47.020Z,97907.97
2022-09-30T18:03:13.657Z,97899.59
2022-09-30T18:05:40.173Z,97898.84
2022-09-30T18:08:06.615Z,97896.94
2022-09-30T18:10:37.845Z,97897.75
2022-09-30T18:13:05.124Z,97898.72
2022-09-30T18:15:31.756Z,97906.56
2022-09-30T18:17:58.248Z,97905.19
2022-09-30T18:20:25.601Z,97908.72
2022-09-30T18:22:52.785Z,97897.84
2022-09-30T18:25:23.114Z,97894.59
2022-09-30T18:27:57.789Z,97901.13
2022-09-30T18:30:25.584Z,97901.47
2022-09-30T18:32:53.920Z,97895.53
2022-09-30T18:35:24.154Z,97904.50
2022-09-30T18:37:52.179Z,97909.63
2022-09-30T18:40:22.953Z,97907.56
2022-09-30T18:42:58.386Z,97910.13
2022-09-30T18:45:27.038Z,97908.28
2022-09-30T18:47:59.871Z,97902.19
2022-09-30T18:50:29.370Z,97902.59
2022-09-30T18:52:57.790Z,97893.97
2022-09-30T18:55:24.982Z,97909.19
2022-09-30T18:57:55.986Z,97915.81
2022-09-30T19:00:22.546Z,97911.53
2022-09-30T19:02:52.525Z,97912.28
2022-09-30T19:05:19.502Z,97915.88
2022-09-30T19:07:45.954Z,97913.69
2022-09-30T19:10:13.104Z,97921.38
2022-09-30T19:12:44.372Z,97927.66
2022-09-30T19:15:17.058Z,97917.50
2022-09-30T19:17:44.975Z,97920.97
2022-09-30T19:20:15.014Z,97920.66
2022-09-30T19:22:41.477Z,97928.22
2022-09-30T19:25:11.552Z,97926.38
2022-09-30T19:27:40.809Z,97928.28
2022-09-30T19:30:11.142Z,97924.19
2022-09-30T19:32:38.494Z,97925.38
2022-09-30T19:35:11.917Z,97928.00
2022-09-30T19:37:44.141Z,97922.75
2022-09-30T19:40:21.784Z,97927.75
2022-09-30T19:42:50.035Z,97936.09
2022-09-30T19:45:19.382Z,97941.84
2022-09-30T19:47:47.782Z,97934.09
2022-09-30T19:50:14.572Z,97941.31
2022-09-30T19:52:53.370Z,97932.28
2022-09-30T19:55:21.904Z,97927.53
2022-09-30T19:57:48.341Z,97923.31
2022-09-30T20:00:14.886Z,97924.06
2022-09-30T20:02:41.908Z,97928.56
2022-09-30T20:05:09.104Z,97921.78
2022-09-30T20:07:35.541Z,97920.81
2022-09-30T20:10:02.235Z,97921.38
2022-09-30T20:12:29.047Z,97924.31
2022-09-30T20:15:14.295Z,97922.72
2022-09-30T20:17:40.799Z,97917.06
2022-09-30T20:20:26.727Z,97917.69
2022-09-30T20:22:53.271Z,97911.09
2022-09-30T20:25:20.170Z,97909.41
2022-09-30T20:27:51.306Z,97930.50
2022-09-30T20:30:19.165Z,97934.63
2022-09-30T20:32:45.635Z,97928.03
2022-09-30T20:35:12.325Z,97927.88
2022-09-30T20:37:40.636Z,97930.03
2022-09-30T20:40:09.362Z,97937.56
2022-09-30T20:42:38.119Z,97933.13
2022-09-30T20:45:10.642Z,97933.78
2022-09-30T20:47:44.908Z,97937.28
2022-09-30T20:50:12.770Z,97930.34
2022-09-30T20:52:39.349Z,97925.88
2022-09-30T20:55:06.548Z,97923.16
2022-09-30T20:57:33.039Z,97912.31
2022-09-30T20:59:59.976Z,97912.94
2022-09-30T21:02:28.105Z,97913.06
2022-09-30T21:04:57.479Z,97905.84
2022-09-30T21:07:25.235Z,97900.31
2022-09-30T21:09:52.322Z,97885.34
2022-09-30T21:12:18.918Z,97886.09
2022-09-30T21:14:45.738Z,97879.81
2022-09-30T21:17:12.242Z,97873.66
2022-09-30T21:19:38.702Z,97875.16
2022-09-30T21:22:05.137Z,97878.31
2022-09-30T21:24:31.612Z,97868.63
2022-09-30T21:26:58.055Z,97870.09
2022-09-30T21:29:24.576Z,97871.41
2022-09-30T21:31:51.058Z,97861.13
2022-09-30T21:34:17.577Z,97860.81
2022-09-30T21:36:44.098Z,97860.44
2022-09-30T21:39:11.537Z,97853.59
2022-09-30T21:41:38.062Z,97851.72
2022-09-30T21:44:04.574Z,97847.63
2022-09-30T21:46:31.062Z,97846.72
2022-09-30T21:49:18.674Z,97839.22
2022-09-30T21:51:45.982Z,97840.28
2022-09-30T21:54:13.960Z,97842.91
2022-09-30T21:56:42.828Z,97838.25
2022-09-30T21:59:10.464Z,97838.03
2022-09-30T22:01:39.932Z,97841.31
2022-09-30T22:04:07.458Z,97844.09
2022-09-30T22:06:34.125Z,97841.00
2022-09-30T22:09:01.825Z,97842.13
2022-09-30T22:11:31.280Z,97837.56
2022-09-30T22:14:00.357Z,97835.59
2022-09-30T22:16:31.952Z,97835.41
2022-09-30T22:19:01.618Z,97831.50
2022-09-30T22:21:34.143Z,97835.44
2022-09-30T22:24:03.399Z,97835.66
2022-09-30T22:26:32.819Z,97831.91
2022-09-30T22:29:10.801Z,97827.81
2022-09-30T22:31:39.117Z,97833.94
2022-09-30T22:34:29.206Z,97828.31
2022-09-30T22:37:14.324Z,97828.84
2022-09-30T22:39:40.787Z,97833.31
2022-09-30T22:42:07.444Z,97835.53
2022-09-30T22:44:36.815Z,97832.91
2022-09-30T22:47:04.549Z,97832.81
2022-09-30T22:49:34.907Z,97831.19
2022-09-30T22:52:02.870Z,97834.75
2022-09-30T22:54:30.838Z,97834.94
2022-09-30T22:56:59.131Z,97828.16
2022-09-30T22:59:27.119Z,97825.13
2022-09-30T23:01:54.284Z,97823.34
2022-09-30T23:04:22.046Z,97818.03
2022-09-30T23:06:50.922Z,97811.31
2022-09-30T23:09:18.863Z,97810.38
2022-09-30T23:11:46.078Z,97815.50
2022-09-30T23:14:13.315Z,97806.41
2022-09-30T23:16:41.003Z,97809.88
2022-09-30T23:19:07.627Z,97809.44
2022-09-30T23:21:34.499Z,97803.38
2022-09-30T23:24:01.871Z,97802.22
2022-09-30T23:26:29.927Z,97795.00
2022-09-30T23:28:59.243Z,97799.09
2022-09-30T23:31:26.766Z,97794.41
2022-09-30T23:33:56.809Z,97796.59
2022-09-30T23:36:29.282Z,97785.06
2022-09-30T23:39:03.070Z,97788.28
2022-09-30T23:41:32.527Z,97780.56
2022-09-30T23:43:59.481Z,97776.78
2022-09-30T23:46:25.910Z,97776.16
2022-09-30T23:48:52.441Z,97766.94
2022-09-30T23:51:19.711Z,97764.63
2022-09-30T23:53:46.823Z,97766.72
2022-09-30T23:56:17.706Z,97762.94
2022-09-30T23:58:45.626Z,97759.34
